Airfield :
LOGIN :

Register | Disclaimer

   EN    FR    IT 

 










Legend :    VFR   Marginal VFR   IFR   Intensive IFR   Very Intensive IFR
Visi :
Ceiling :
>= 8 km
>= 3000ft
5 to 8 km
1000 to 3000 ft
1500m to 5 km
500 to 1000 ft
800 to 1500m
200 to 500 ft
< 800m
< 200 ft
Symbols :   Thunderstorms  Fog  Heavy snow  Heavy precipitations  Wind > 20 kt
SIGMETs :     Misc.  Thunderstorms  Icing  Turbulence  Mountain Waves  Volcanic Ashes







- Airport Elevation : 289 ft
- IATA code : ZAD


LDZD - Zadar

CURRENT METAR :
  • 190200Z 07008KT 030V120 CAVOK 05/M02 Q1014

EXPIRED METARs :
  • 190130Z 07009KT 030V110 CAVOK 06/M02 Q1015
  • 190100Z 07011KT 020V130 CAVOK 06/M02 Q1014
  • 190030Z 07009KT 020V130 CAVOK 05/M01 Q1014
  • 190000Z 08009KT 010V130 CAVOK 05/M01 Q1014
  • 182330Z 08011KT 030V150 9999 FEW040 05/M01 Q1014

TAF TAF LDZD
Valid from the 19 at 00:00 until the 20 at 00:00 UTC


182325Z 1900/2000 06014KT 9999 BKN035 TX07/1913Z TN02/1923Z
PROB30
TEMPO 1900/1911 06008KT
PROB30
TEMPO 1906/1913 RA
BECMG 1911/1913 06008KT
BECMG 1919/1921 VRB02KT
No reported NOTAMs for that airfield.



MET'MAP, your aeronautical weather chart ! - Copyright ORBIFLY December 2007 - Disclaimer

ORBIFLY MET'MAP TEAM :

Programming & Development : Alexandra Zaïnal
Concept & Development : Baudouin d'Aumeries
Co-Development & Prog : Marc-Olivier Méhu
Technical & hardware support : Manuel Goepfert

Contact : metmap@orbifly.com




SOURCES & CREDITS :

   NOAA